Time;durP1;ratioP1;P1;durP2;ratioP2;P2;SDS_P1;SDS_P2;PMS_P1;PMS_P2;Temp;Humidity;BMP_temperature;BMP_pressure;BME280_temperature;BME280_humidity;BME280_pressure;Samples;Min_cycle;Max_cycle;Signal;HPM_P1;HPM_P2
2022/04/27 00:00:52;;;;;;;74.25;45.72;;;;;;;5.50;100.00;99255.16;2057987;28;20201;-76
2022/04/27 00:01:54;;;;;;;70.87;44.93;;;;;;;5.47;100.00;99258.31;2066071;28;20280;-77
2022/04/27 00:02:55;;;;;;;76.03;45.63;;;;;;;5.48;100.00;99266.00;2074702;28;20197;-77
2022/04/27 00:03:57;;;;;;;70.70;44.38;;;;;;;5.41;100.00;99259.34;2074659;28;20267;-76
2022/04/27 00:05:00;;;;;;;77.07;47.00;;;;;;;5.43;100.00;99262.53;2074756;28;20192;-76
2022/04/27 00:06:02;;;;;;;68.35;43.85;;;;;;;5.46;100.00;99260.16;2074316;28;20216;-76
2022/04/27 00:07:06;;;;;;;71.13;44.85;;;;;;;5.42;100.00;99267.03;2074119;28;20242;-77
2022/04/27 00:08:07;;;;;;;70.20;44.85;;;;;;;5.42;100.00;99256.44;2065917;28;20679;-76
2022/04/27 00:09:10;;;;;;;70.38;44.72;;;;;;;5.43;100.00;99262.53;2065696;28;20189;-76
2022/04/27 00:10:12;;;;;;;70.30;44.70;;;;;;;5.39;100.00;99263.06;2074528;28;20280;-77
2022/04/27 00:11:15;;;;;;;71.53;43.42;;;;;;;5.34;100.00;99260.38;2065593;28;20687;-77
2022/04/27 00:12:17;;;;;;;67.78;42.65;;;;;;;5.35;100.00;99263.81;2066337;28;20583;-77
2022/04/27 00:13:21;;;;;;;67.45;42.65;;;;;;;5.36;100.00;99268.06;2065797;28;20207;-77
2022/04/27 00:14:23;;;;;;;68.13;42.67;;;;;;;5.32;100.00;99270.44;2066092;28;20193;-77
2022/04/27 00:15:27;;;;;;;66.40;42.08;;;;;;;5.30;100.00;99263.78;2074603;28;20189;-77
2022/04/27 00:16:27;;;;;;;70.00;42.58;;;;;;;5.29;100.00;99268.28;2074601;28;20196;-77
2022/04/27 00:17:29;;;;;;;69.00;41.67;;;;;;;5.31;100.00;99275.97;2074552;28;20195;-77
2022/04/27 00:18:30;;;;;;;69.05;41.20;;;;;;;5.30;100.00;99271.72;2074771;28;20197;-76
2022/04/27 00:19:33;;;;;;;67.13;40.50;;;;;;;5.31;100.00;99275.97;2074767;28;20271;-77
2022/04/27 00:20:33;;;;;;;68.28;42.75;;;;;;;5.31;100.00;99268.03;2074743;28;20200;-77
2022/04/27 00:21:35;;;;;;;70.73;42.83;;;;;;;5.33;100.00;99273.88;2074140;28;20235;-77
2022/04/27 00:22:36;;;;;;;68.70;42.58;;;;;;;5.32;100.00;99274.91;2074541;28;20196;-77
2022/04/27 00:23:38;;;;;;;68.17;44.33;;;;;;;5.37;100.00;99270.44;2065184;28;20810;-77
2022/04/27 00:24:39;;;;;;;70.20;43.05;;;;;;;5.39;100.00;99267.56;2066107;28;20189;-77
2022/04/27 00:25:42;;;;;;;66.22;42.45;;;;;;;5.37;100.00;99269.63;2074709;28;20197;-77
2022/04/27 00:26:43;;;;;;;68.00;43.05;;;;;;;5.32;100.00;99273.06;2074501;28;20242;-77
2022/04/27 00:27:46;;;;;;;70.83;41.23;;;;;;;5.32;100.00;99273.06;2074499;28;20196;-77
2022/04/27 00:28:49;;;;;;;66.75;42.30;;;;;;;5.32;100.00;99266.97;2074750;28;20188;-77
2022/04/27 00:29:49;;;;;;;65.13;41.92;;;;;;;5.32;100.00;99273.06;2065607;28;20258;-77
2022/04/27 00:30:52;;;;;;;70.27;43.33;;;;;;;5.34;100.00;99276.25;2065635;28;20189;-76
2022/04/27 00:31:56;;;;;;;72.63;42.47;;;;;;;5.30;100.00;99271.72;2074504;28;20557;-77
2022/04/27 00:32:59;;;;;;;66.30;41.75;;;;;;;5.29;100.00;99268.28;2074536;28;20550;-77
2022/04/27 00:34:01;;;;;;;67.80;42.38;;;;;;;5.35;100.00;99274.41;2074476;28;20195;-77
2022/04/27 00:35:05;;;;;;;64.85;40.85;;;;;;;5.36;100.00;99270.69;2065565;28;20217;-77
2022/04/27 00:36:07;;;;;;;65.03;40.63;;;;;;;5.44;100.00;99277.34;2065690;28;20189;-76
2022/04/27 00:37:08;;;;;;;66.15;41.92;;;;;;;5.34;100.00;99275.44;2065769;28;20224;-77
2022/04/27 00:38:10;;;;;;;66.23;41.10;;;;;;;5.32;100.00;99281.00;2065764;28;20659;-77
2022/04/27 00:39:13;;;;;;;72.40;39.83;;;;;;;5.37;100.00;99282.88;2065648;28;20200;-76
2022/04/27 00:40:15;;;;;;;63.63;40.58;;;;;;;5.31;100.00;99275.97;2065609;28;20193;-77
2022/04/27 00:41:18;;;;;;;67.10;40.13;;;;;;;5.31;100.00;99279.41;2057627;28;20292;-77
2022/04/27 00:42:21;;;;;;;60.60;38.65;;;;;;;5.17;100.00;99280.09;2057813;28;20197;-76
2022/04/27 00:43:39;;;;;;;68.35;41.63;;;;;;;5.10;100.00;99280.31;2057621;28;20201;-77
2022/04/27 00:44:43;;;;;;;66.30;41.35;;;;;;;5.00;100.00;99286.34;2059511;28;20201;-77
2022/04/27 00:45:46;;;;;;;65.95;39.58;;;;;;;5.00;100.00;99281.06;2066165;28;20250;-76
2022/04/27 00:46:50;;;;;;;65.85;40.83;;;;;;;4.98;100.00;99285.81;2064690;28;20255;-77
2022/04/27 00:47:52;;;;;;;60.45;40.63;;;;;;;4.93;100.00;99283.13;2066060;28;20200;-77
2022/04/27 00:48:53;;;;;;;65.03;41.70;;;;;;;4.85;100.00;99280.13;2074259;28;20218;-77
2022/04/27 00:49:57;;;;;;;60.17;40.45;;;;;;;4.81;100.00;99280.66;2065649;28;20291;-77
2022/04/27 00:51:00;;;;;;;62.78;40.58;;;;;;;4.82;100.00;99278.81;2065449;28;20726;-76
2022/04/27 00:52:01;;;;;;;64.10;42.55;;;;;;;4.86;100.00;99279.88;2065572;28;20193;-77
2022/04/27 00:53:04;;;;;;;62.25;39.95;;;;;;;4.85;100.00;99272.22;2056877;28;20206;-77
2022/04/27 00:54:06;;;;;;;69.05;40.88;;;;;;;4.87;100.00;99272.78;2065912;28;20260;-77
2022/04/27 00:55:08;;;;;;;64.40;41.05;;;;;;;4.89;100.00;99278.59;2065401;28;20212;-76
2022/04/27 00:56:11;;;;;;;62.72;41.53;;;;;;;4.77;100.00;99274.25;2065692;28;20211;-77
2022/04/27 00:57:13;;;;;;;61.08;40.30;;;;;;;4.74;100.00;99271.34;2065513;28;20756;-77
2022/04/27 00:58:16;;;;;;;64.35;41.35;;;;;;;4.71;100.00;99277.94;2065621;28;20681;-77
2022/04/27 00:59:17;;;;;;;61.92;40.75;;;;;;;4.70;100.00;99276.34;2065431;28;20567;-77
2022/04/27 01:00:21;;;;;;;61.67;39.63;;;;;;;4.69;100.00;99279.22;2065479;28;20197;-77
2022/04/27 01:01:22;;;;;;;64.00;41.35;;;;;;;4.63;100.00;99269.66;2065817;28;20203;-77
2022/04/27 01:02:24;;;;;;;62.97;40.22;;;;;;;4.59;100.00;99274.66;2065124;28;20691;-76
2022/04/27 01:03:26;;;;;;;63.22;42.35;;;;;;;4.63;100.00;99273.09;2065673;28;20193;-77
2022/04/27 01:04:28;;;;;;;72.60;43.95;;;;;;;4.60;100.00;99278.06;2065357;28;20205;-77
2022/04/27 01:05:28;;;;;;;71.78;44.25;;;;;;;4.65;100.00;99270.22;2057437;28;20615;-76
2022/04/27 01:06:30;;;;;;;73.93;44.40;;;;;;;4.64;100.00;99284.47;2065224;28;20221;-77
2022/04/27 01:07:32;;;;;;;67.88;43.60;;;;;;;4.71;100.00;99274.50;2065419;28;20295;-77
2022/04/27 01:08:34;;;;;;;68.75;44.15;;;;;;;4.72;100.00;99274.25;2065683;28;20196;-76
2022/04/27 01:09:35;;;;;;;67.35;43.78;;;;;;;4.82;100.00;99278.81;2065325;28;20197;-76
2022/04/27 01:10:37;;;;;;;67.17;40.97;;;;;;;4.76;100.00;99277.16;2057377;28;20205;-76
2022/04/27 01:11:39;;;;;;;69.03;43.50;;;;;;;4.72;100.00;99271.59;2057326;28;20212;-77
2022/04/27 01:12:41;;;;;;;74.57;45.83;;;;;;;4.69;100.00;99279.22;2065558;28;20639;-77
2022/04/27 01:13:47;;;;;;;70.25;44.17;;;;;;;4.71;100.00;99272.66;2065545;28;20623;-76
2022/04/27 01:14:50;;;;;;;69.38;42.92;;;;;;;4.69;100.00;99274.75;2056681;28;20207;-77
2022/04/27 01:15:52;;;;;;;75.82;44.30;;;;;;;4.70;100.00;99273.69;2057357;28;20229;-76
2022/04/27 01:16:56;;;;;;;69.00;44.45;;;;;;;4.70;100.00;99275.53;2057415;28;20197;-77
2022/04/27 01:17:57;;;;;;;68.43;42.88;;;;;;;4.67;100.00;99279.47;2057610;28;20237;-77
2022/04/27 01:19:01;;;;;;;70.00;43.17;;;;;;;4.65;100.00;99280.78;2057614;28;20200;-77
2022/04/27 01:20:02;;;;;;;73.28;43.35;;;;;;;4.63;100.00;99275.75;2057481;28;20212;-76
2022/04/27 01:21:06;;;;;;;73.40;44.53;;;;;;;4.60;100.00;99286.00;2056328;28;20197;-76
2022/04/27 01:22:14;;;;;;;76.10;46.10;;;;;;;4.58;100.00;99285.47;2058458;28;20288;-76
2022/04/27 01:23:21;;;;;;;74.72;44.33;;;;;;;4.62;100.00;99284.72;2057747;28;20668;-77
2022/04/27 01:24:24;;;;;;;73.00;44.55;;;;;;;4.65;100.00;99291.34;2065628;28;20717;-77
2022/04/27 01:25:29;;;;;;;67.35;43.88;;;;;;;4.65;100.00;99291.34;2065245;28;20558;-77
2022/04/27 01:26:30;;;;;;;74.05;45.25;;;;;;;4.68;100.00;99282.91;2058035;28;20197;-77
2022/04/27 01:27:32;;;;;;;71.57;45.13;;;;;;;4.72;100.00;99284.00;2065395;28;20218;-77
2022/04/27 01:28:35;;;;;;;82.88;47.00;;;;;;;4.77;100.00;99286.69;2065280;28;20228;-77
2022/04/27 01:29:38;;;;;;;69.85;44.92;;;;;;;4.76;100.00;99279.81;2065996;28;20193;-77
2022/04/27 01:30:38;;;;;;;71.57;45.30;;;;;;;4.73;100.00;99280.31;2065269;28;20600;-77
2022/04/27 01:31:40;;;;;;;71.10;44.50;;;;;;;4.72;100.00;99279.53;2056781;28;20296;-77
2022/04/27 01:32:43;;;;;;;68.88;43.33;;;;;;;4.70;100.00;99283.47;2065361;28;20201;-77
2022/04/27 01:33:46;;;;;;;69.85;44.63;;;;;;;4.69;100.00;99285.31;2073801;28;20223;-77
2022/04/27 01:34:47;;;;;;;74.03;44.50;;;;;;;4.65;100.00;99283.41;2065215;28;20240;-77
2022/04/27 01:35:49;;;;;;;66.13;43.50;;;;;;;4.61;100.00;99283.13;2057184;28;20214;-77
2022/04/27 01:36:54;;;;;;;66.15;42.05;;;;;;;4.61;100.00;99292.91;2057125;28;20739;-76
2022/04/27 01:38:01;;;;;;;64.70;41.88;;;;;;;4.61;100.00;99295.56;2057439;28;20534;-76
2022/04/27 01:39:03;;;;;;;70.10;43.20;;;;;;;4.58;100.00;99294.19;2058021;28;20194;-76
2022/04/27 01:40:08;;;;;;;67.82;41.45;;;;;;;4.50;100.00;99290.16;2057323;28;20209;-77
2022/04/27 01:41:10;;;;;;;74.88;43.53;;;;;;;4.50;100.00;99292.00;2065911;28;20185;-77
2022/04/27 01:42:11;;;;;;;66.45;44.20;;;;;;;4.57;100.00;99289.97;2065252;28;20694;-77
2022/04/27 01:43:15;;;;;;;72.32;43.60;;;;;;;4.56;100.00;99300.78;2065283;28;20220;-77
2022/04/27 01:44:18;;;;;;;74.72;43.90;;;;;;;4.56;100.00;99288.38;2073479;28;20674;-76
2022/04/27 01:45:20;;;;;;;67.30;43.65;;;;;;;4.55;100.00;99292.06;2065153;28;20193;-77
2022/04/27 01:46:21;;;;;;;71.68;42.97;;;;;;;4.54;100.00;99293.91;2057349;28;20201;-76
2022/04/27 01:47:24;;;;;;;64.95;42.03;;;;;;;4.56;100.00;99293.66;2065426;28;20212;-77
2022/04/27 01:48:26;;;;;;;71.65;44.17;;;;;;;4.54;100.00;99288.63;2064812;28;20223;-77
2022/04/27 01:49:28;;;;;;;68.10;42.80;;;;;;;4.52;100.00;99288.09;2065563;28;20197;-77
2022/04/27 01:50:29;;;;;;;62.42;40.17;;;;;;;4.52;100.00;99285.44;2065174;28;20296;-76
2022/04/27 01:54:18;;;;;;;65.68;40.15;;;;;;;4.45;100.00;99291.97;2065279;28;20586;-77
2022/04/27 01:55:21;;;;;;;67.72;41.08;;;;;;;4.41;100.00;99286.38;2058339;28;20320;-77
2022/04/27 01:56:22;;;;;;;67.97;40.43;;;;;;;4.38;100.00;99292.16;2064683;28;20249;-77
2022/04/27 01:57:27;;;;;;;61.88;40.08;;;;;;;4.36;100.00;99291.63;2066101;28;20177;-77
2022/04/27 01:58:30;;;;;;;67.20;40.90;;;;;;;4.31;100.00;99288.13;2065255;28;20220;-77
2022/04/27 01:59:31;;;;;;;66.05;40.90;;;;;;;4.34;100.00;99291.06;2057370;28;20198;-77
2022/04/27 02:00:34;;;;;;;65.43;39.83;;;;;;;4.36;100.00;99296.09;2065183;28;20205;-77
2022/04/27 02:01:35;;;;;;;67.93;40.85;;;;;;;4.33;100.00;99286.81;2057298;28;20260;-77
2022/04/27 02:02:36;;;;;;;68.07;42.77;;;;;;;4.37;100.00;99289.78;2065096;28;20243;-76
2022/04/27 02:03:41;;;;;;;74.68;42.42;;;;;;;4.36;100.00;99290.81;2057325;28;20198;-76
2022/04/27 02:04:46;;;;;;;72.40;43.72;;;;;;;4.36;100.00;99293.47;2057808;28;20202;-77
2022/04/27 02:05:53;;;;;;;68.18;44.40;;;;;;;4.36;100.00;99283.69;2064741;28;20203;-75
2022/04/27 02:06:57;;;;;;;72.60;44.70;;;;;;;4.37;100.00;99293.22;2057621;28;20268;-77
2022/04/27 02:08:01;;;;;;;72.72;41.38;;;;;;;4.39;100.00;99285.81;2057252;28;20221;-76
2022/04/27 02:09:03;;;;;;;71.10;42.88;;;;;;;4.38;100.00;99288.72;2065466;28;20547;-76
2022/04/27 02:10:14;;;;;;;70.22;43.97;;;;;;;4.42;100.00;99287.16;2064368;28;20248;-76
2022/04/27 02:11:24;;;;;;;69.28;42.53;;;;;;;4.35;100.00;99284.75;2058073;28;20182;-77
2022/04/27 02:12:41;;;;;;;66.22;40.75;;;;;;;4.33;100.00;99281.53;2059595;28;20240;-77
2022/04/27 02:13:54;;;;;;;68.20;42.28;;;;;;;4.34;100.00;99287.63;2066909;28;20184;-76
2022/04/27 02:14:56;;;;;;;63.95;39.92;;;;;;;4.30;100.00;99292.59;2065141;28;20283;-76
2022/04/27 02:15:57;;;;;;;69.63;41.43;;;;;;;4.27;100.00;99293.13;2057170;28;20205;-76
2022/04/27 02:17:07;;;;;;;74.50;42.78;;;;;;;4.26;100.00;99286.25;2058293;28;20592;-77
2022/04/27 02:18:09;;;;;;;68.35;42.00;;;;;;;4.24;100.00;99288.31;2057184;28;20220;-76
2022/04/27 02:19:13;;;;;;;73.75;43.65;;;;;;;4.25;100.00;99282.78;2065315;28;20193;-76
2022/04/27 02:20:18;;;;;;;74.68;43.83;;;;;;;4.22;100.00;99291.22;2064959;28;20610;-77
2022/04/27 02:21:23;;;;;;;73.25;42.70;;;;;;;4.23;100.00;99292.00;2056668;28;20229;-77
2022/04/27 02:22:24;;;;;;;70.07;42.92;;;;;;;4.20;100.00;99290.66;2065584;28;20197;-77
2022/04/27 02:23:27;;;;;;;68.73;42.13;;;;;;;4.21;100.00;99289.63;2065143;28;20197;-76
2022/04/27 02:24:27;;;;;;;67.85;43.33;;;;;;;4.22;100.00;99288.56;2065211;28;20761;-77
2022/04/27 02:25:30;;;;;;;71.47;42.53;;;;;;;4.20;100.00;99287.22;2065022;28;20593;-76
2022/04/27 02:26:32;;;;;;;71.70;43.38;;;;;;;4.20;100.00;99287.22;2065491;28;20710;-76
2022/04/27 02:27:34;;;;;;;71.15;43.70;;;;;;;4.19;100.00;99290.91;2073912;28;20207;-76
2022/04/27 02:28:35;;;;;;;71.47;43.13;;;;;;;4.20;100.00;99289.88;2065025;28;20200;-77
2022/04/27 02:29:37;;;;;;;76.87;44.07;;;;;;;4.18;100.00;99294.59;2057006;28;20284;-77
2022/04/27 02:30:50;;;;;;;68.60;42.80;;;;;;;4.20;100.00;99293.31;2058434;28;20209;-75
2022/04/27 02:31:51;;;;;;;68.55;43.28;;;;;;;4.17;100.00;99292.97;2065181;28;20197;-76
2022/04/27 02:32:54;;;;;;;71.45;43.20;;;;;;;4.15;100.00;99292.44;2074742;28;20192;-76
2022/04/27 02:33:56;;;;;;;69.38;42.35;;;;;;;4.14;100.00;99288.22;2066654;28;20208;-76
2022/04/27 02:35:03;;;;;;;71.80;41.95;;;;;;;4.15;100.00;99298.53;2066686;28;20197;-77
2022/04/27 02:36:05;;;;;;;71.97;42.05;;;;;;;4.12;100.00;99292.94;2066083;28;20231;-76
2022/04/27 02:37:07;;;;;;;72.97;44.00;;;;;;;4.12;100.00;99293.75;2058255;28;20197;-77
2022/04/27 02:38:11;;;;;;;65.25;41.10;;;;;;;4.08;100.00;99287.34;2066660;28;20277;-76
2022/04/27 02:39:15;;;;;;;70.83;43.10;;;;;;;4.08;100.00;99282.06;2058646;28;20292;-76
2022/04/27 02:40:18;;;;;;;69.30;41.78;;;;;;;4.01;100.00;99288.59;2058893;28;20194;-77
2022/04/27 02:41:20;;;;;;;71.07;42.42;;;;;;;4.02;100.00;99282.28;2058800;28;20298;-76
2022/04/27 02:42:22;;;;;;;71.18;42.58;;;;;;;4.08;100.00;99286.56;2058500;28;20209;-77
2022/04/27 02:43:24;;;;;;;64.57;40.60;;;;;;;4.07;100.00;99296.31;2058556;28;20205;-77
2022/04/27 02:44:24;;;;;;;70.38;41.90;;;;;;;4.06;100.00;99291.28;2058595;28;20194;-76
2022/04/27 02:45:26;;;;;;;64.00;41.20;;;;;;;4.06;100.00;99289.44;2058555;28;20213;-77
2022/04/27 02:46:28;;;;;;;66.90;40.50;;;;;;;4.08;100.00;99289.19;2058620;28;20730;-77
2022/04/27 02:47:31;;;;;;;69.07;42.30;;;;;;;4.11;100.00;99284.22;2058576;28;20217;-76
2022/04/27 02:48:34;;;;;;;64.53;40.53;;;;;;;4.09;100.00;99285.53;2066826;28;20295;-76
2022/04/27 02:52:16;;;;;;;61.38;39.90;;;;;;;4.06;100.00;99288.66;2061120;28;20228;-76
2022/04/27 02:53:39;;;;;;;63.83;40.25;;;;;;;4.07;100.00;99292.88;2069475;28;20177;-77
2022/04/27 02:54:42;;;;;;;67.90;40.78;;;;;;;4.04;100.00;99288.09;2066435;28;20295;-76
2022/04/27 02:55:45;;;;;;;65.25;40.00;;;;;;;4.05;100.00;99300.25;2066297;28;20558;-77
2022/04/27 02:56:46;;;;;;;67.03;40.35;;;;;;;4.06;100.00;99288.66;2066488;28;20684;-76
2022/04/27 02:57:47;;;;;;;69.32;40.53;;;;;;;4.05;100.00;99292.34;2066715;28;20275;-76
2022/04/27 02:58:48;;;;;;;66.32;40.67;;;;;;;4.05;100.00;99289.69;2066413;28;20699;-76
2022/04/27 02:59:50;;;;;;;66.33;40.80;;;;;;;4.07;100.00;99292.88;2058390;28;20546;-76
2022/04/27 03:00:53;;;;;;;72.63;41.50;;;;;;;4.07;100.00;99290.25;2058461;28;20264;-77
2022/04/27 03:01:56;;;;;;;63.67;39.88;;;;;;;4.11;100.00;99299.28;2066749;28;20227;-77
2022/04/27 03:02:57;;;;;;;67.40;40.67;;;;;;;4.09;100.00;99298.72;2065749;28;20695;-76
2022/04/27 03:03:59;;;;;;;63.15;39.63;;;;;;;4.06;100.00;99294.72;2066406;28;20212;-76
2022/04/27 03:05:02;;;;;;;57.88;39.17;;;;;;;4.07;100.00;99293.69;2058426;28;20229;-76
2022/04/27 03:06:03;;;;;;;63.60;38.70;;;;;;;4.03;100.00;99297.06;2057948;28;20299;-76
2022/04/27 03:07:05;;;;;;;58.63;37.07;;;;;;;4.03;100.00;99308.44;2058351;28;20262;-77
2022/04/27 03:08:11;;;;;;;61.05;37.58;;;;;;;4.01;100.00;99307.09;2059321;28;20182;-76
2022/04/27 03:09:30;;;;;;;60.83;37.45;;;;;;;4.00;100.00;99308.09;2068992;28;20170;-77
2022/04/27 03:10:32;;;;;;;57.03;38.15;;;;;;;4.03;100.00;99303.16;2066327;28;20246;-76
2022/04/27 03:11:34;;;;;;;61.25;37.40;;;;;;;4.03;100.00;99310.28;2058302;28;20198;-77
2022/04/27 03:12:48;;;;;;;53.95;35.70;;;;;;;4.06;100.00;99315.06;2068393;28;20204;-76
2022/04/27 03:13:51;;;;;;;60.10;36.70;;;;;;;4.04;100.00;99312.66;2074623;28;20215;-76
2022/04/27 03:14:52;;;;;;;61.90;37.40;;;;;;;4.04;100.00;99310.03;2066406;28;20678;-76
2022/04/27 03:15:55;;;;;;;59.53;38.40;;;;;;;4.08;100.00;99312.94;2058178;28;20694;-77
2022/04/27 03:16:56;;;;;;;56.42;36.72;;;;;;;4.08;100.00;99315.59;2057563;28;20644;-77
2022/04/27 03:19:13;;;;;;;57.03;36.20;;;;;;;4.01;100.00;99309.72;2060850;28;20252;-77
2022/04/27 03:20:15;;;;;;;57.78;37.38;;;;;;;4.01;100.00;99310.53;2066306;28;20188;-77
2022/04/27 03:21:17;;;;;;;58.28;36.42;;;;;;;3.98;100.00;99313.63;2064993;28;20252;-77
2022/04/27 03:22:18;;;;;;;61.20;38.70;;;;;;;3.93;100.00;99313.59;2066398;28;20193;-77
2022/04/27 03:23:21;;;;;;;57.78;35.92;;;;;;;3.93;100.00;99313.59;2066251;28;20193;-77
2022/04/27 03:24:29;;;;;;;55.35;36.72;;;;;;;3.94;100.00;99315.97;2059125;28;20284;-77
2022/04/27 03:25:41;;;;;;;56.17;36.35;;;;;;;3.93;100.00;99314.38;2067867;28;20205;-76
2022/04/27 03:26:43;;;;;;;53.72;35.85;;;;;;;3.93;100.00;99318.88;2066289;28;20775;-77
2022/04/27 03:27:44;;;;;;;56.45;36.70;;;;;;;3.91;100.00;99318.34;2058253;28;20244;-77
2022/04/27 03:28:47;;;;;;;53.40;35.92;;;;;;;3.90;100.00;99320.13;2058280;28;20194;-77
2022/04/27 03:29:49;;;;;;;53.95;36.70;;;;;;;3.90;100.00;99316.72;2066876;28;20197;-77
2022/04/27 03:30:53;;;;;;;56.35;36.15;;;;;;;3.87;100.00;99318.00;2066109;28;20276;-76
2022/04/27 03:32:22;;;;;;;58.38;36.03;;;;;;;3.90;100.00;99317.50;2066491;28;20685;-76
2022/04/27 03:33:36;;;;;;;52.00;34.50;;;;;;;3.88;100.00;99322.25;2066421;28;20230;-77
2022/04/27 03:34:38;;;;;;;52.30;34.93;;;;;;;3.90;100.00;99324.63;2066320;28;20197;-77
2022/04/27 03:35:39;;;;;;;53.22;35.75;;;;;;;3.90;100.00;99327.25;2066250;28;20197;-77
2022/04/27 03:36:41;;;;;;;55.95;35.10;;;;;;;3.89;100.00;99323.03;2057895;28;20221;-76
2022/04/27 03:37:44;;;;;;;56.92;35.20;;;;;;;3.87;100.00;99333.84;2058160;28;20263;-77
2022/04/27 03:38:48;;;;;;;60.00;37.50;;;;;;;3.83;100.00;99319.56;2058293;28;20656;-77
2022/04/27 03:39:49;;;;;;;53.33;34.90;;;;;;;3.79;100.00;99322.91;2058409;28;20202;-77
2022/04/27 03:40:55;;;;;;;54.67;36.15;;;;;;;3.77;100.00;99325.00;2058527;28;20197;-77
2022/04/27 03:41:57;;;;;;;57.47;37.97;;;;;;;3.74;100.00;99326.28;2058183;28;20197;-77
2022/04/27 03:43:00;;;;;;;56.60;37.22;;;;;;;3.74;100.00;99328.13;2058473;28;20657;-77
2022/04/27 03:44:03;;;;;;;64.60;38.22;;;;;;;3.78;100.00;99324.75;2057534;28;20210;-77
2022/04/27 03:45:07;;;;;;;57.30;37.47;;;;;;;3.80;100.00;99325.31;2058125;28;20683;-77
2022/04/27 03:46:14;;;;;;;58.15;35.38;;;;;;;3.84;100.00;99329.06;2059237;28;20202;-76
2022/04/27 03:47:16;;;;;;;57.37;37.10;;;;;;;3.83;100.00;99327.47;2058145;28;20285;-76
2022/04/27 03:48:17;;;;;;;54.50;37.17;;;;;;;3.88;100.00;99329.34;2066156;28;20225;-76
2022/04/27 03:49:20;;;;;;;50.83;35.10;;;;;;;3.90;100.00;99335.97;2074249;28;20233;-77
2022/04/27 03:50:22;;;;;;;51.28;35.08;;;;;;;3.95;100.00;99336.06;2074173;28;20199;-77
2022/04/27 03:51:32;;;;;;;58.53;36.60;;;;;;;3.97;100.00;99331.31;2065605;28;20308;-77
2022/04/27 03:52:35;;;;;;;55.10;35.63;;;;;;;4.02;100.00;99325.31;2058855;28;20233;-77
2022/04/27 03:53:37;;;;;;;56.83;36.17;;;;;;;4.04;100.00;99330.34;2058271;28;20300;-76
2022/04/27 03:54:38;;;;;;;59.58;38.25;;;;;;;4.03;100.00;99326.91;2057998;28;20637;-77
2022/04/27 03:55:40;;;;;;;54.60;37.20;;;;;;;4.05;100.00;99337.22;2066017;28;20185;-76
2022/04/27 03:56:42;;;;;;;54.97;36.03;;;;;;;4.07;100.00;99330.63;2066056;28;20241;-76
2022/04/27 03:57:46;;;;;;;59.35;38.10;;;;;;;4.08;100.00;99332.22;2058302;28;20198;-77
2022/04/27 03:58:48;;;;;;;62.15;36.97;;;;;;;4.09;100.00;99335.69;2058119;28;20236;-76
2022/04/27 03:59:50;;;;;;;60.20;37.40;;;;;;;4.10;100.00;99342.56;2058025;28;20201;-76
2022/04/27 04:00:53;;;;;;;54.80;36.97;;;;;;;4.10;100.00;99335.44;2058230;28;20726;-76
2022/04/27 04:01:57;;;;;;;56.20;37.58;;;;;;;4.18;100.00;99348.22;2058206;28;20656;-77
2022/04/27 04:02:59;;;;;;;57.08;36.65;;;;;;;4.24;100.00;99346.41;2057633;28;20710;-76
2022/04/27 04:04:01;;;;;;;58.55;37.35;;;;;;;4.25;100.00;99348.00;2057830;28;20256;-76
2022/04/27 04:05:03;;;;;;;58.65;38.13;;;;;;;4.30;100.00;99349.91;2057944;28;20663;-76
2022/04/27 04:06:05;;;;;;;59.95;38.75;;;;;;;4.28;100.00;99349.38;2065385;28;20224;-76
2022/04/27 04:07:21;;;;;;;49.75;36.90;;;;;;;4.32;100.00;99345.97;2067832;28;20280;-76
2022/04/27 04:08:28;;;;;;;62.15;39.13;;;;;;;4.32;100.00;99348.63;2065880;28;20215;-77
2022/04/27 04:09:34;;;;;;;62.83;38.25;;;;;;;4.35;100.00;99352.63;2066208;28;20196;-76
2022/04/27 04:10:37;;;;;;;54.50;36.72;;;;;;;4.38;100.00;99352.91;2065827;28;20603;-76
2022/04/27 04:11:39;;;;;;;57.55;37.67;;;;;;;4.38;100.00;99350.28;2066191;28;20200;-76
2022/04/27 04:13:00;;;;;;;60.72;37.88;;;;;;;4.44;100.00;99346.66;2075001;28;20181;-77
2022/04/27 04:14:10;;;;;;;53.03;35.92;;;;;;;4.43;100.00;99350.34;2075011;28;20183;-76
2022/04/27 04:15:20;;;;;;;56.67;37.20;;;;;;;4.47;100.00;99354.06;2065891;28;20272;-76
2022/04/27 04:16:54;;;;;;;54.60;36.17;;;;;;;4.52;100.00;99354.13;2057717;28;20281;-76
2022/04/27 04:18:27;;;;;;;53.38;36.15;;;;;;;4.58;100.00;99364.75;2065021;28;20197;-77
2022/04/27 04:20:04;;;;;;;51.65;33.90;;;;;;;4.56;100.00;99367.63;2030881;29;20225;-77
2022/04/27 04:21:29;;;;;;;58.30;36.53;;;;;;;4.59;100.00;99364.47;2032828;29;20784;-76
2022/04/27 04:22:35;;;;;;;54.97;36.10;;;;;;;4.62;100.00;99363.22;2049343;28;20208;-77
2022/04/27 04:23:56;;;;;;;58.67;37.70;;;;;;;4.67;100.00;99360.59;2060277;28;20217;-76
2022/04/27 04:29:10;;;;;;;56.65;37.47;;;;;;;4.81;100.00;99378.47;2049025;28;20211;-77
2022/04/27 04:30:11;;;;;;;64.20;38.60;;;;;;;4.91;100.00;99375.09;2057791;28;20284;-77
2022/04/27 04:31:14;;;;;;;63.55;39.88;;;;;;;4.91;100.00;99383.03;2057711;28;20229;-76
2022/04/27 04:32:38;;;;;;;55.75;37.90;;;;;;;5.03;100.00;99374.94;2060901;28;20215;-76
2022/04/27 04:34:00;;;;;;;60.10;37.17;;;;;;;5.08;100.00;99375.78;2060126;28;20236;-76
2022/04/27 04:35:01;;;;;;;61.15;39.10;;;;;;;5.14;100.00;99386.41;2065647;28;20205;-76
2022/04/27 04:36:03;;;;;;;62.97;38.70;;;;;;;5.16;100.00;99387.75;2057017;28;20280;-76
2022/04/27 04:37:05;;;;;;;59.75;38.90;;;;;;;5.25;100.00;99380.16;2065769;28;20189;-77
2022/04/27 04:38:07;;;;;;;56.78;38.30;;;;;;;5.30;100.00;99382.81;2065789;28;20197;-77
2022/04/27 04:39:08;;;;;;;59.55;38.55;;;;;;;5.35;100.00;99375.72;2057249;28;20305;-77
2022/04/27 04:40:13;;;;;;;58.17;37.42;;;;;;;5.41;100.00;99387.16;2058042;28;20198;-77
2022/04/27 04:41:16;;;;;;;60.20;37.50;;;;;;;5.46;100.00;99381.88;2057797;28;20201;-77
2022/04/27 04:42:27;;;;;;;55.40;36.95;;;;;;;5.47;100.00;99380.81;2059015;28;20185;-77
2022/04/27 04:43:32;;;;;;;55.53;37.50;;;;;;;5.52;100.00;99383.53;2065861;28;20229;-77
2022/04/27 04:44:34;;;;;;;58.67;37.50;;;;;;;5.55;100.00;99393.59;2065957;28;20231;-77
2022/04/27 04:46:09;;;;;;;60.33;37.95;;;;;;;5.57;100.00;99386.22;2061815;28;20773;-77
2022/04/27 04:47:32;;;;;;;56.17;37.05;;;;;;;5.58;100.00;99393.09;2074527;28;20176;-77
2022/04/27 04:48:54;;;;;;;51.90;36.33;;;;;;;5.54;100.00;99385.91;2025783;29;20215;-76
2022/04/27 04:50:14;;;;;;;52.80;36.78;;;;;;;5.51;100.00;99387.22;2074706;28;20177;-77
2022/04/27 04:51:38;;;;;;;56.17;36.95;;;;;;;5.50;100.00;99396.22;2065636;28;20260;-77
2022/04/27 04:53:03;;;;;;;57.90;36.45;;;;;;;5.52;100.00;99388.03;2068871;28;20549;-77
2022/04/27 04:54:27;;;;;;;63.40;37.40;;;;;;;5.53;100.00;99394.91;2057101;28;20192;-77
2022/04/27 04:55:31;;;;;;;57.83;38.40;;;;;;;5.52;100.00;99398.59;2074191;28;20199;-76
2022/04/27 04:56:42;;;;;;;61.20;38.75;;;;;;;5.54;100.00;99399.94;2074221;28;20205;-77
2022/04/27 04:58:02;;;;;;;64.38;38.45;;;;;;;5.60;100.00;99398.94;2074598;28;20271;-77
2022/04/27 04:59:22;;;;;;;69.07;37.30;;;;;;;5.57;100.00;99396.81;2074308;28;20259;-76
2022/04/27 05:00:48;;;;;;;63.38;37.45;;;;;;;5.60;100.00;99391.00;2073709;28;20196;-77
2022/04/27 05:01:59;;;;;;;56.80;37.60;;;;;;;5.62;100.00;99394.16;2065507;28;20659;-76
2022/04/27 05:03:12;;;;;;;56.33;38.38;;;;;;;5.63;100.00;99400.25;2058851;28;20205;-76
2022/04/27 05:04:31;;;;;;;58.35;37.28;;;;;;;5.65;100.00;99393.69;2068409;28;20188;-77
2022/04/27 05:05:53;;;;;;;60.78;38.45;;;;;;;5.66;100.00;99403.22;2072977;28;20281;-76
2022/04/27 05:07:20;;;;;;;59.90;38.17;;;;;;;5.60;100.00;99401.56;2065704;28;20197;-77
2022/04/27 05:08:22;;;;;;;56.70;39.42;;;;;;;5.62;100.00;99402.09;2065676;28;20205;-77
2022/04/27 05:09:51;;;;;;;63.20;38.50;;;;;;;5.67;100.00;99404.00;2065434;28;20197;-76
2022/04/27 05:11:14;;;;;;;57.53;38.33;;;;;;;5.69;100.00;99404.53;2068381;28;20185;-76